sensor_id;sensor_type;location;lat;lon;timestamp;temperature;humidity
20829;DHT22;10575;50.124;8.582;2023-01-01T00:00:22;11.40;99.90
20829;DHT22;10575;50.124;8.582;2023-01-01T00:02:47;11.40;99.90
20829;DHT22;10575;50.124;8.582;2023-01-01T00:05:13;11.40;99.90
20829;DHT22;10575;50.124;8.582;2023-01-01T00:07:38;11.30;99.90
20829;DHT22;10575;50.124;8.582;2023-01-01T00:10:04;11.30;99.90
20829;DHT22;10575;50.124;8.582;2023-01-01T00:12:48;11.30;99.90
20829;DHT22;10575;50.124;8.582;2023-01-01T00:15:14;11.30;99.90
20829;DHT22;10575;50.124;8.582;2023-01-01T00:17:39;11.20;99.90
20829;DHT22;10575;50.124;8.582;2023-01-01T00:20:05;11.20;99.90
20829;DHT22;10575;50.124;8.582;2023-01-01T00:22:32;11.20;99.90
20829;DHT22;10575;50.124;8.582;2023-01-01T00:24:57;11.20;99.90
20829;DHT22;10575;50.124;8.582;2023-01-01T00:27:26;11.20;99.90
20829;DHT22;10575;50.124;8.582;2023-01-01T00:29:51;11.20;99.90
20829;DHT22;10575;50.124;8.582;2023-01-01T00:32:17;11.10;99.90
20829;DHT22;10575;50.124;8.582;2023-01-01T00:34:42;11.10;99.90
20829;DHT22;10575;50.124;8.582;2023-01-01T00:37:08;11.10;99.90
20829;DHT22;10575;50.124;8.582;2023-01-01T00:39:33;11.10;99.90
20829;DHT22;10575;50.124;8.582;2023-01-01T00:41:59;11.10;99.90
20829;DHT22;10575;50.124;8.582;2023-01-01T00:44:24;11.20;99.90
20829;DHT22;10575;50.124;8.582;2023-01-01T00:46:50;11.20;99.90
20829;DHT22;10575;50.124;8.582;2023-01-01T00:49:15;11.20;99.90
20829;DHT22;10575;50.124;8.582;2023-01-01T00:51:41;11.20;99.90
20829;DHT22;10575;50.124;8.582;2023-01-01T00:54:06;11.10;99.90
20829;DHT22;10575;50.124;8.582;2023-01-01T00:56:32;11.10;99.90
20829;DHT22;10575;50.124;8.582;2023-01-01T00:58:58;11.10;99.90
20829;DHT22;10575;50.124;8.582;2023-01-01T01:01:23;11.10;99.90
20829;DHT22;10575;50.124;8.582;2023-01-01T01:03:49;11.10;99.90
20829;DHT22;10575;50.124;8.582;2023-01-01T01:06:16;11.10;99.90
20829;DHT22;10575;50.124;8.582;2023-01-01T01:08:44;11.10;99.90
20829;DHT22;10575;50.124;8.582;2023-01-01T01:11:14;11.10;99.90
20829;DHT22;10575;50.124;8.582;2023-01-01T01:13:41;11.20;99.90
20829;DHT22;10575;50.124;8.582;2023-01-01T01:16:16;11.30;99.90
20829;DHT22;10575;50.124;8.582;2023-01-01T01:18:42;11.40;99.90
20829;DHT22;10575;50.124;8.582;2023-01-01T01:21:09;11.30;99.90
20829;DHT22;10575;50.124;8.582;2023-01-01T01:23:35;11.20;99.90
20829;DHT22;10575;50.124;8.582;2023-01-01T01:26:12;11.10;99.90
20829;DHT22;10575;50.124;8.582;2023-01-01T01:28:39;11.00;99.90
20829;DHT22;10575;50.124;8.582;2023-01-01T01:31:04;11.00;99.90
20829;DHT22;10575;50.124;8.582;2023-01-01T01:33:30;10.90;99.90
20829;DHT22;10575;50.124;8.582;2023-01-01T01:35:55;11.00;99.90
20829;DHT22;10575;50.124;8.582;2023-01-01T01:38:21;11.00;99.90
20829;DHT22;10575;50.124;8.582;2023-01-01T01:40:46;10.90;99.90
20829;DHT22;10575;50.124;8.582;2023-01-01T01:46:22;11.00;99.90
20829;DHT22;10575;50.124;8.582;2023-01-01T01:48:50;11.10;99.90
20829;DHT22;10575;50.124;8.582;2023-01-01T01:51:20;11.00;99.90
20829;DHT22;10575;50.124;8.582;2023-01-01T01:53:50;11.00;99.90
20829;DHT22;10575;50.124;8.582;2023-01-01T01:56:21;10.90;99.90
20829;DHT22;10575;50.124;8.582;2023-01-01T01:58:48;10.90;99.90
20829;DHT22;10575;50.124;8.582;2023-01-01T02:01:14;10.80;99.90
20829;DHT22;10575;50.124;8.582;2023-01-01T02:04:12;10.90;99.90
20829;DHT22;10575;50.124;8.582;2023-01-01T02:06:39;11.00;99.90
20829;DHT22;10575;50.124;8.582;2023-01-01T02:09:06;10.90;99.90
20829;DHT22;10575;50.124;8.582;2023-01-01T02:11:33;10.90;99.90
20829;DHT22;10575;50.124;8.582;2023-01-01T02:14:00;10.80;99.90
20829;DHT22;10575;50.124;8.582;2023-01-01T02:19:50;11.00;99.90
20829;DHT22;10575;50.124;8.582;2023-01-01T02:21:53;11.00;99.90
20829;DHT22;10575;50.124;8.582;2023-01-01T02:29:48;11.00;99.90
20829;DHT22;10575;50.124;8.582;2023-01-01T02:32:20;10.80;99.90
20829;DHT22;10575;50.124;8.582;2023-01-01T02:34:57;10.80;99.90
20829;DHT22;10575;50.124;8.582;2023-01-01T02:37:25;10.80;99.90
20829;DHT22;10575;50.124;8.582;2023-01-01T02:39:57;10.70;99.90
20829;DHT22;10575;50.124;8.582;2023-01-01T02:42:26;10.60;99.90
20829;DHT22;10575;50.124;8.582;2023-01-01T02:44:54;10.50;99.90
20829;DHT22;10575;50.124;8.582;2023-01-01T02:47:20;10.50;99.90
20829;DHT22;10575;50.124;8.582;2023-01-01T02:49:55;10.40;99.90
20829;DHT22;10575;50.124;8.582;2023-01-01T02:52:39;10.40;99.90
20829;DHT22;10575;50.124;8.582;2023-01-01T02:55:13;10.40;99.90
20829;DHT22;10575;50.124;8.582;2023-01-01T02:57:50;10.40;99.90
20829;DHT22;10575;50.124;8.582;2023-01-01T03:00:18;10.40;99.90
20829;DHT22;10575;50.124;8.582;2023-01-01T03:03:16;10.40;99.90
20829;DHT22;10575;50.124;8.582;2023-01-01T03:06:05;10.40;99.90
20829;DHT22;10575;50.124;8.582;2023-01-01T03:08:57;10.40;99.90
20829;DHT22;10575;50.124;8.582;2023-01-01T03:11:33;10.40;99.90
20829;DHT22;10575;50.124;8.582;2023-01-01T03:16:47;10.30;99.90
20829;DHT22;10575;50.124;8.582;2023-01-01T03:19:21;10.30;99.90
20829;DHT22;10575;50.124;8.582;2023-01-01T03:22:06;10.20;99.90
20829;DHT22;10575;50.124;8.582;2023-01-01T03:25:04;10.40;99.90
20829;DHT22;10575;50.124;8.582;2023-01-01T03:30:08;10.50;99.90
20829;DHT22;10575;50.124;8.582;2023-01-01T03:32:49;10.40;99.90
20829;DHT22;10575;50.124;8.582;2023-01-01T03:37:57;10.50;99.90
20829;DHT22;10575;50.124;8.582;2023-01-01T03:40:24;10.60;99.90
20829;DHT22;10575;50.124;8.582;2023-01-01T03:42:55;10.60;99.90
20829;DHT22;10575;50.124;8.582;2023-01-01T03:45:34;10.50;99.90
20829;DHT22;10575;50.124;8.582;2023-01-01T03:48:01;10.50;99.90
20829;DHT22;10575;50.124;8.582;2023-01-01T03:50:55;10.40;99.90
20829;DHT22;10575;50.124;8.582;2023-01-01T03:53:31;10.40;99.90
20829;DHT22;10575;50.124;8.582;2023-01-01T03:56:24;10.30;99.90
20829;DHT22;10575;50.124;8.582;2023-01-01T03:58:57;10.30;99.90
20829;DHT22;10575;50.124;8.582;2023-01-01T04:01:29;10.20;99.90
20829;DHT22;10575;50.124;8.582;2023-01-01T04:03:56;10.20;99.90
20829;DHT22;10575;50.124;8.582;2023-01-01T04:06:23;10.10;99.90
20829;DHT22;10575;50.124;8.582;2023-01-01T04:08:52;10.00;99.90
20829;DHT22;10575;50.124;8.582;2023-01-01T04:11:23;10.00;99.90
20829;DHT22;10575;50.124;8.582;2023-01-01T04:14:09;9.90;99.90
20829;DHT22;10575;50.124;8.582;2023-01-01T04:16:34;9.90;99.90
20829;DHT22;10575;50.124;8.582;2023-01-01T04:19:00;9.90;99.90
20829;DHT22;10575;50.124;8.582;2023-01-01T04:21:25;9.90;99.90
20829;DHT22;10575;50.124;8.582;2023-01-01T04:23:51;9.90;99.90
20829;DHT22;10575;50.124;8.582;2023-01-01T04:26:16;9.80;99.90
20829;DHT22;10575;50.124;8.582;2023-01-01T04:28:44;9.80;99.90
20829;DHT22;10575;50.124;8.582;2023-01-01T04:31:10;9.80;99.90
20829;DHT22;10575;50.124;8.582;2023-01-01T04:33:36;9.80;99.90
20829;DHT22;10575;50.124;8.582;2023-01-01T04:36:03;9.80;99.90
20829;DHT22;10575;50.124;8.582;2023-01-01T04:38:31;9.90;99.90
20829;DHT22;10575;50.124;8.582;2023-01-01T04:40:58;9.90;99.90
20829;DHT22;10575;50.124;8.582;2023-01-01T04:43:23;9.90;99.90
20829;DHT22;10575;50.124;8.582;2023-01-01T04:45:56;9.90;99.90
20829;DHT22;10575;50.124;8.582;2023-01-01T04:48:22;9.90;99.90
20829;DHT22;10575;50.124;8.582;2023-01-01T04:51:04;9.80;99.90
20829;DHT22;10575;50.124;8.582;2023-01-01T04:53:32;9.70;99.90
20829;DHT22;10575;50.124;8.582;2023-01-01T04:56:04;9.70;99.90
20829;DHT22;10575;50.124;8.582;2023-01-01T04:58:31;9.70;99.90
20829;DHT22;10575;50.124;8.582;2023-01-01T05:00:57;9.70;99.90
20829;DHT22;10575;50.124;8.582;2023-01-01T05:03:22;9.70;99.90
20829;DHT22;10575;50.124;8.582;2023-01-01T05:06:06;9.70;99.90
20829;DHT22;10575;50.124;8.582;2023-01-01T05:08:33;9.70;99.90
20829;DHT22;10575;50.124;8.582;2023-01-01T05:11:10;9.70;99.90
20829;DHT22;10575;50.124;8.582;2023-01-01T05:13:37;9.70;99.90
20829;DHT22;10575;50.124;8.582;2023-01-01T05:16:04;9.70;99.90
20829;DHT22;10575;50.124;8.582;2023-01-01T05:18:30;9.70;99.90
20829;DHT22;10575;50.124;8.582;2023-01-01T05:21:04;9.80;99.90
20829;DHT22;10575;50.124;8.582;2023-01-01T05:23:30;9.90;99.90
20829;DHT22;10575;50.124;8.582;2023-01-01T05:25:55;9.90;99.90
20829;DHT22;10575;50.124;8.582;2023-01-01T05:28:21;9.90;99.90
20829;DHT22;10575;50.124;8.582;2023-01-01T05:30:48;10.00;99.90
20829;DHT22;10575;50.124;8.582;2023-01-01T05:33:14;10.00;99.90
20829;DHT22;10575;50.124;8.582;2023-01-01T05:35:39;10.10;99.90
20829;DHT22;10575;50.124;8.582;2023-01-01T05:38:04;10.00;99.90
20829;DHT22;10575;50.124;8.582;2023-01-01T05:40:30;10.00;99.90
20829;DHT22;10575;50.124;8.582;2023-01-01T05:42:55;10.00;99.90
20829;DHT22;10575;50.124;8.582;2023-01-01T05:45:21;10.00;99.90
20829;DHT22;10575;50.124;8.582;2023-01-01T05:47:47;10.00;99.90
20829;DHT22;10575;50.124;8.582;2023-01-01T05:50:12;9.90;99.90
20829;DHT22;10575;50.124;8.582;2023-01-01T05:52:38;9.90;99.90
20829;DHT22;10575;50.124;8.582;2023-01-01T05:55:03;9.90;99.90
20829;DHT22;10575;50.124;8.582;2023-01-01T05:57:29;9.90;99.90
20829;DHT22;10575;50.124;8.582;2023-01-01T05:59:54;9.90;99.90
20829;DHT22;10575;50.124;8.582;2023-01-01T06:02:20;9.80;99.90
20829;DHT22;10575;50.124;8.582;2023-01-01T06:04:45;9.80;99.90
20829;DHT22;10575;50.124;8.582;2023-01-01T06:07:11;9.70;99.90
20829;DHT22;10575;50.124;8.582;2023-01-01T06:09:36;9.70;99.90
20829;DHT22;10575;50.124;8.582;2023-01-01T06:12:02;9.70;99.90
20829;DHT22;10575;50.124;8.582;2023-01-01T06:14:28;9.60;99.90
20829;DHT22;10575;50.124;8.582;2023-01-01T06:16:53;9.60;99.90
20829;DHT22;10575;50.124;8.582;2023-01-01T06:19:19;9.60;99.90
20829;DHT22;10575;50.124;8.582;2023-01-01T06:21:44;9.50;99.90
20829;DHT22;10575;50.124;8.582;2023-01-01T06:24:10;9.50;99.90
20829;DHT22;10575;50.124;8.582;2023-01-01T06:26:35;9.50;99.90
20829;DHT22;10575;50.124;8.582;2023-01-01T06:29:01;9.50;99.90
20829;DHT22;10575;50.124;8.582;2023-01-01T06:31:28;9.50;99.90
20829;DHT22;10575;50.124;8.582;2023-01-01T06:33:54;9.50;99.90
20829;DHT22;10575;50.124;8.582;2023-01-01T06:36:22;9.50;99.90
20829;DHT22;10575;50.124;8.582;2023-01-01T06:38:50;9.50;99.90
20829;DHT22;10575;50.124;8.582;2023-01-01T06:41:20;9.50;99.90
20829;DHT22;10575;50.124;8.582;2023-01-01T06:43:47;9.50;99.90
20829;DHT22;10575;50.124;8.582;2023-01-01T06:46:21;9.50;99.90
20829;DHT22;10575;50.124;8.582;2023-01-01T06:48:52;9.50;99.90
20829;DHT22;10575;50.124;8.582;2023-01-01T06:51:24;9.50;99.90
20829;DHT22;10575;50.124;8.582;2023-01-01T06:53:50;9.50;99.90
20829;DHT22;10575;50.124;8.582;2023-01-01T06:56:16;9.50;99.90
20829;DHT22;10575;50.124;8.582;2023-01-01T06:58:42;9.50;99.90
20829;DHT22;10575;50.124;8.582;2023-01-01T07:01:10;9.60;99.90
20829;DHT22;10575;50.124;8.582;2023-01-01T07:03:37;9.50;99.90
20829;DHT22;10575;50.124;8.582;2023-01-01T07:06:04;9.50;99.90
20829;DHT22;10575;50.124;8.582;2023-01-01T07:08:29;9.50;99.90
20829;DHT22;10575;50.124;8.582;2023-01-01T07:10:55;9.50;99.90
20829;DHT22;10575;50.124;8.582;2023-01-01T07:13:26;9.50;99.90
20829;DHT22;10575;50.124;8.582;2023-01-01T07:15:52;9.40;99.90
20829;DHT22;10575;50.124;8.582;2023-01-01T07:18:22;9.40;99.90
20829;DHT22;10575;50.124;8.582;2023-01-01T07:20:52;9.50;99.90
20829;DHT22;10575;50.124;8.582;2023-01-01T07:23:18;9.50;99.90
20829;DHT22;10575;50.124;8.582;2023-01-01T07:25:44;9.50;99.90
20829;DHT22;10575;50.124;8.582;2023-01-01T07:28:10;9.50;99.90
20829;DHT22;10575;50.124;8.582;2023-01-01T07:30:36;9.50;99.90
20829;DHT22;10575;50.124;8.582;2023-01-01T07:33:02;9.50;99.90
20829;DHT22;10575;50.124;8.582;2023-01-01T07:35:27;9.50;99.90
20829;DHT22;10575;50.124;8.582;2023-01-01T07:37:53;9.50;99.90
20829;DHT22;10575;50.124;8.582;2023-01-01T07:40:18;9.50;99.90
20829;DHT22;10575;50.124;8.582;2023-01-01T07:42:44;9.50;99.90
20829;DHT22;10575;50.124;8.582;2023-01-01T07:45:11;9.60;99.90
20829;DHT22;10575;50.124;8.582;2023-01-01T07:47:37;9.70;99.90
20829;DHT22;10575;50.124;8.582;2023-01-01T07:50:03;9.80;99.90
20829;DHT22;10575;50.124;8.582;2023-01-01T07:52:29;9.80;99.90
20829;DHT22;10575;50.124;8.582;2023-01-01T07:54:54;9.80;99.90
20829;DHT22;10575;50.124;8.582;2023-01-01T07:57:20;9.80;99.90
20829;DHT22;10575;50.124;8.582;2023-01-01T07:59:45;9.80;99.90
20829;DHT22;10575;50.124;8.582;2023-01-01T08:02:11;9.90;99.90
20829;DHT22;10575;50.124;8.582;2023-01-01T08:04:37;10.00;99.90
20829;DHT22;10575;50.124;8.582;2023-01-01T08:07:03;10.00;99.90
20829;DHT22;10575;50.124;8.582;2023-01-01T08:09:28;10.10;99.90
20829;DHT22;10575;50.124;8.582;2023-01-01T08:11:54;10.20;99.90
20829;DHT22;10575;50.124;8.582;2023-01-01T08:14:23;10.20;99.90
20829;DHT22;10575;50.124;8.582;2023-01-01T08:16:48;10.30;99.90
20829;DHT22;10575;50.124;8.582;2023-01-01T08:19:14;10.40;99.90
20829;DHT22;10575;50.124;8.582;2023-01-01T08:21:39;10.60;99.90
20829;DHT22;10575;50.124;8.582;2023-01-01T08:24:05;10.70;99.90
20829;DHT22;10575;50.124;8.582;2023-01-01T08:26:32;10.90;99.90
20829;DHT22;10575;50.124;8.582;2023-01-01T08:29:01;11.00;99.90
20829;DHT22;10575;50.124;8.582;2023-01-01T08:31:27;11.10;99.90
20829;DHT22;10575;50.124;8.582;2023-01-01T08:33:53;11.10;99.90
20829;DHT22;10575;50.124;8.582;2023-01-01T08:36:18;11.20;99.90
20829;DHT22;10575;50.124;8.582;2023-01-01T08:38:45;11.20;99.90
20829;DHT22;10575;50.124;8.582;2023-01-01T08:41:10;11.20;99.90
20829;DHT22;10575;50.124;8.582;2023-01-01T08:43:36;11.30;99.90
20829;DHT22;10575;50.124;8.582;2023-01-01T08:46:01;11.50;99.90
20829;DHT22;10575;50.124;8.582;2023-01-01T08:48:27;11.60;99.90
20829;DHT22;10575;50.124;8.582;2023-01-01T08:50:53;11.70;99.90
20829;DHT22;10575;50.124;8.582;2023-01-01T08:53:19;11.80;99.90
20829;DHT22;10575;50.124;8.582;2023-01-01T08:56:00;12.00;99.90
20829;DHT22;10575;50.124;8.582;2023-01-01T08:58:28;12.20;99.90
20829;DHT22;10575;50.124;8.582;2023-01-01T09:00:57;12.40;99.90
20829;DHT22;10575;50.124;8.582;2023-01-01T09:03:27;12.50;99.90
20829;DHT22;10575;50.124;8.582;2023-01-01T09:05:53;12.80;99.90
20829;DHT22;10575;50.124;8.582;2023-01-01T09:08:19;12.90;99.90
20829;DHT22;10575;50.124;8.582;2023-01-01T09:10:45;13.10;99.90
20829;DHT22;10575;50.124;8.582;2023-01-01T09:13:12;13.00;99.90
20829;DHT22;10575;50.124;8.582;2023-01-01T09:15:38;13.00;99.90
20829;DHT22;10575;50.124;8.582;2023-01-01T09:18:04;12.90;99.90
20829;DHT22;10575;50.124;8.582;2023-01-01T09:20:30;12.90;99.90
20829;DHT22;10575;50.124;8.582;2023-01-01T09:22:55;12.90;99.90
20829;DHT22;10575;50.124;8.582;2023-01-01T09:25:21;12.80;99.90
20829;DHT22;10575;50.124;8.582;2023-01-01T09:27:47;12.80;99.90
20829;DHT22;10575;50.124;8.582;2023-01-01T09:30:12;12.80;99.90
20829;DHT22;10575;50.124;8.582;2023-01-01T09:32:38;12.80;99.90
20829;DHT22;10575;50.124;8.582;2023-01-01T09:35:04;12.80;99.90
20829;DHT22;10575;50.124;8.582;2023-01-01T09:37:30;12.90;99.90
20829;DHT22;10575;50.124;8.582;2023-01-01T09:39:56;13.00;99.90
20829;DHT22;10575;50.124;8.582;2023-01-01T09:45:13;13.00;99.90
20829;DHT22;10575;50.124;8.582;2023-01-01T09:47:45;13.00;99.90
20829;DHT22;10575;50.124;8.582;2023-01-01T09:50:18;13.00;99.90
20829;DHT22;10575;50.124;8.582;2023-01-01T09:52:52;13.00;99.90
20829;DHT22;10575;50.124;8.582;2023-01-01T09:58:09;13.10;99.90
20829;DHT22;10575;50.124;8.582;2023-01-01T10:00:38;13.10;99.90
20829;DHT22;10575;50.124;8.582;2023-01-01T10:08:28;13.40;99.90
20829;DHT22;10575;50.124;8.582;2023-01-01T10:13:54;13.40;99.90
20829;DHT22;10575;50.124;8.582;2023-01-01T10:16:44;13.40;99.90
20829;DHT22;10575;50.124;8.582;2023-01-01T10:19:36;13.40;99.90
20829;DHT22;10575;50.124;8.582;2023-01-01T10:22:15;13.50;99.90
20829;DHT22;10575;50.124;8.582;2023-01-01T10:24:51;13.50;99.90
20829;DHT22;10575;50.124;8.582;2023-01-01T10:29:52;13.60;99.90
20829;DHT22;10575;50.124;8.582;2023-01-01T10:32:20;13.60;99.90
20829;DHT22;10575;50.124;8.582;2023-01-01T10:34:47;13.60;99.90
20829;DHT22;10575;50.124;8.582;2023-01-01T10:37:13;13.60;99.90
20829;DHT22;10575;50.124;8.582;2023-01-01T10:39:40;13.60;99.90
20829;DHT22;10575;50.124;8.582;2023-01-01T10:42:06;13.70;99.90
20829;DHT22;10575;50.124;8.582;2023-01-01T10:44:32;13.70;99.90
20829;DHT22;10575;50.124;8.582;2023-01-01T10:47:12;13.70;99.90
20829;DHT22;10575;50.124;8.582;2023-01-01T10:49:59;13.80;99.90
20829;DHT22;10575;50.124;8.582;2023-01-01T10:52:33;13.80;99.90
20829;DHT22;10575;50.124;8.582;2023-01-01T10:54:59;13.80;99.90
20829;DHT22;10575;50.124;8.582;2023-01-01T11:00:25;13.60;99.90
20829;DHT22;10575;50.124;8.582;2023-01-01T11:06:03;13.60;99.90
20829;DHT22;10575;50.124;8.582;2023-01-01T11:08:30;13.60;99.90
20829;DHT22;10575;50.124;8.582;2023-01-01T11:10:58;13.80;99.90
20829;DHT22;10575;50.124;8.582;2023-01-01T11:13:25;13.90;99.90
20829;DHT22;10575;50.124;8.582;2023-01-01T11:15:51;14.10;99.90
20829;DHT22;10575;50.124;8.582;2023-01-01T11:18:20;14.30;99.90
20829;DHT22;10575;50.124;8.582;2023-01-01T11:20:57;14.50;99.90
20829;DHT22;10575;50.124;8.582;2023-01-01T11:23:37;14.60;99.90
20829;DHT22;10575;50.124;8.582;2023-01-01T11:28:36;14.70;99.90
20829;DHT22;10575;50.124;8.582;2023-01-01T11:31:15;14.80;99.90
20829;DHT22;10575;50.124;8.582;2023-01-01T11:33:48;14.90;99.90
20829;DHT22;10575;50.124;8.582;2023-01-01T11:36:34;14.90;99.90
20829;DHT22;10575;50.124;8.582;2023-01-01T11:39:23;14.70;99.90
20829;DHT22;10575;50.124;8.582;2023-01-01T11:41:53;14.70;99.90
20829;DHT22;10575;50.124;8.582;2023-01-01T11:46:53;14.70;99.90
20829;DHT22;10575;50.124;8.582;2023-01-01T11:49:24;14.80;99.90
20829;DHT22;10575;50.124;8.582;2023-01-01T11:51:51;14.90;99.90
20829;DHT22;10575;50.124;8.582;2023-01-01T11:54:31;14.90;99.90
20829;DHT22;10575;50.124;8.582;2023-01-01T11:57:13;14.90;99.90
20829;DHT22;10575;50.124;8.582;2023-01-01T11:59:46;14.90;99.90
20829;DHT22;10575;50.124;8.582;2023-01-01T12:02:17;14.90;99.90
20829;DHT22;10575;50.124;8.582;2023-01-01T12:05:24;14.90;99.90
20829;DHT22;10575;50.124;8.582;2023-01-01T12:07:48;14.70;99.90
20829;DHT22;10575;50.124;8.582;2023-01-01T12:10:22;14.70;99.90
20829;DHT22;10575;50.124;8.582;2023-01-01T12:18:19;14.70;99.90
20829;DHT22;10575;50.124;8.582;2023-01-01T12:20:59;14.70;99.90
20829;DHT22;10575;50.124;8.582;2023-01-01T12:23:26;14.70;99.90
20829;DHT22;10575;50.124;8.582;2023-01-01T12:26:08;14.60;99.90
20829;DHT22;10575;50.124;8.582;2023-01-01T12:34:15;14.80;99.90
20829;DHT22;10575;50.124;8.582;2023-01-01T12:42:40;15.00;99.90
20829;DHT22;10575;50.124;8.582;2023-01-01T12:45:11;15.10;99.90
20829;DHT22;10575;50.124;8.582;2023-01-01T12:48:02;15.00;99.90
20829;DHT22;10575;50.124;8.582;2023-01-01T12:53:29;15.10;99.90
20829;DHT22;10575;50.124;8.582;2023-01-01T12:58:47;15.00;99.90
20829;DHT22;10575;50.124;8.582;2023-01-01T13:04:03;15.00;99.90
20829;DHT22;10575;50.124;8.582;2023-01-01T13:06:36;15.00;99.90
20829;DHT22;10575;50.124;8.582;2023-01-01T13:09:09;15.00;99.90
20829;DHT22;10575;50.124;8.582;2023-01-01T13:11:36;15.00;99.90
20829;DHT22;10575;50.124;8.582;2023-01-01T13:14:02;15.00;99.90
20829;DHT22;10575;50.124;8.582;2023-01-01T13:16:37;15.00;99.90
20829;DHT22;10575;50.124;8.582;2023-01-01T13:19:04;15.10;99.90
20829;DHT22;10575;50.124;8.582;2023-01-01T13:21:29;15.00;99.90
20829;DHT22;10575;50.124;8.582;2023-01-01T13:24:20;15.10;99.90
20829;DHT22;10575;50.124;8.582;2023-01-01T13:26:47;15.10;99.90
20829;DHT22;10575;50.124;8.582;2023-01-01T13:39:56;15.00;99.90
20829;DHT22;10575;50.124;8.582;2023-01-01T13:42:42;14.90;99.90
20829;DHT22;10575;50.124;8.582;2023-01-01T13:46:00;14.80;99.90
20829;DHT22;10575;50.124;8.582;2023-01-01T13:48:32;14.80;99.90
20829;DHT22;10575;50.124;8.582;2023-01-01T13:54:07;14.60;99.90
20829;DHT22;10575;50.124;8.582;2023-01-01T13:56:57;14.60;99.90
20829;DHT22;10575;50.124;8.582;2023-01-01T13:59:53;14.60;99.90
20829;DHT22;10575;50.124;8.582;2023-01-01T14:02:34;14.60;99.90
20829;DHT22;10575;50.124;8.582;2023-01-01T14:05:28;14.40;99.90
20829;DHT22;10575;50.124;8.582;2023-01-01T14:07:56;14.40;99.90
20829;DHT22;10575;50.124;8.582;2023-01-01T14:12:47;14.40;99.90
20829;DHT22;10575;50.124;8.582;2023-01-01T14:15:15;14.30;99.90
20829;DHT22;10575;50.124;8.582;2023-01-01T14:17:42;14.40;99.90
20829;DHT22;10575;50.124;8.582;2023-01-01T14:20:12;14.30;99.90
20829;DHT22;10575;50.124;8.582;2023-01-01T14:22:38;14.20;99.90
20829;DHT22;10575;50.124;8.582;2023-01-01T14:25:05;14.20;99.90
20829;DHT22;10575;50.124;8.582;2023-01-01T14:27:31;14.20;99.90
20829;DHT22;10575;50.124;8.582;2023-01-01T14:29:56;14.30;99.90
20829;DHT22;10575;50.124;8.582;2023-01-01T14:32:23;14.40;99.90
20829;DHT22;10575;50.124;8.582;2023-01-01T14:35:00;14.30;99.90
20829;DHT22;10575;50.124;8.582;2023-01-01T14:37:26;14.20;99.90
20829;DHT22;10575;50.124;8.582;2023-01-01T14:40:25;14.20;99.90
20829;DHT22;10575;50.124;8.582;2023-01-01T14:43:05;14.20;99.90
20829;DHT22;10575;50.124;8.582;2023-01-01T14:45:35;14.20;99.90
20829;DHT22;10575;50.124;8.582;2023-01-01T14:48:04;14.20;99.90
20829;DHT22;10575;50.124;8.582;2023-01-01T14:50:31;14.10;99.90
20829;DHT22;10575;50.124;8.582;2023-01-01T14:53:07;14.20;99.90
20829;DHT22;10575;50.124;8.582;2023-01-01T14:55:41;14.20;99.90
20829;DHT22;10575;50.124;8.582;2023-01-01T14:58:16;14.10;99.90
20829;DHT22;10575;50.124;8.582;2023-01-01T15:00:42;14.10;99.90
20829;DHT22;10575;50.124;8.582;2023-01-01T15:03:14;14.00;99.90
20829;DHT22;10575;50.124;8.582;2023-01-01T15:05:41;14.00;99.90
20829;DHT22;10575;50.124;8.582;2023-01-01T15:08:20;14.10;99.90
20829;DHT22;10575;50.124;8.582;2023-01-01T15:10:46;14.00;99.90
20829;DHT22;10575;50.124;8.582;2023-01-01T15:13:20;14.00;99.90
20829;DHT22;10575;50.124;8.582;2023-01-01T15:15:48;14.00;99.90
20829;DHT22;10575;50.124;8.582;2023-01-01T15:21:24;14.00;99.90
20829;DHT22;10575;50.124;8.582;2023-01-01T15:24:08;14.00;99.90
20829;DHT22;10575;50.124;8.582;2023-01-01T15:26:50;13.90;99.90
20829;DHT22;10575;50.124;8.582;2023-01-01T15:32:01;13.80;99.90
20829;DHT22;10575;50.124;8.582;2023-01-01T15:34:32;13.80;99.90
20829;DHT22;10575;50.124;8.582;2023-01-01T15:39:52;13.70;99.90
20829;DHT22;10575;50.124;8.582;2023-01-01T15:47:44;13.60;99.90
20829;DHT22;10575;50.124;8.582;2023-01-01T15:52:48;13.60;99.90
20829;DHT22;10575;50.124;8.582;2023-01-01T15:55:16;13.60;99.90
20829;DHT22;10575;50.124;8.582;2023-01-01T15:57:49;13.50;99.90
20829;DHT22;10575;50.124;8.582;2023-01-01T16:00:19;13.60;99.90
20829;DHT22;10575;50.124;8.582;2023-01-01T16:02:49;13.60;99.90
20829;DHT22;10575;50.124;8.582;2023-01-01T16:05:18;13.50;99.90
20829;DHT22;10575;50.124;8.582;2023-01-01T16:07:44;13.40;99.90
20829;DHT22;10575;50.124;8.582;2023-01-01T16:10:16;13.40;99.90
20829;DHT22;10575;50.124;8.582;2023-01-01T16:12:42;13.40;99.90
20829;DHT22;10575;50.124;8.582;2023-01-01T16:15:13;13.50;99.90
20829;DHT22;10575;50.124;8.582;2023-01-01T16:17:39;13.50;99.90
20829;DHT22;10575;50.124;8.582;2023-01-01T16:20:05;13.40;99.90
20829;DHT22;10575;50.124;8.582;2023-01-01T16:22:31;13.40;99.90
20829;DHT22;10575;50.124;8.582;2023-01-01T16:24:57;13.40;99.90
20829;DHT22;10575;50.124;8.582;2023-01-01T16:27:22;13.50;99.90
20829;DHT22;10575;50.124;8.582;2023-01-01T16:29:47;13.40;99.90
20829;DHT22;10575;50.124;8.582;2023-01-01T16:32:17;13.50;99.90
20829;DHT22;10575;50.124;8.582;2023-01-01T16:34:43;13.40;99.90
20829;DHT22;10575;50.124;8.582;2023-01-01T16:37:08;13.50;99.90
20829;DHT22;10575;50.124;8.582;2023-01-01T16:39:34;13.40;99.90
20829;DHT22;10575;50.124;8.582;2023-01-01T16:41:59;13.40;99.90
20829;DHT22;10575;50.124;8.582;2023-01-01T16:44:25;13.30;99.90
20829;DHT22;10575;50.124;8.582;2023-01-01T16:46:50;13.30;99.90
20829;DHT22;10575;50.124;8.582;2023-01-01T16:49:16;13.30;99.90
20829;DHT22;10575;50.124;8.582;2023-01-01T16:51:41;13.30;99.90
20829;DHT22;10575;50.124;8.582;2023-01-01T16:54:07;13.20;99.90
20829;DHT22;10575;50.124;8.582;2023-01-01T16:56:32;13.30;99.90
20829;DHT22;10575;50.124;8.582;2023-01-01T16:58:58;13.30;99.90
20829;DHT22;10575;50.124;8.582;2023-01-01T17:01:24;13.30;99.90
20829;DHT22;10575;50.124;8.582;2023-01-01T17:03:50;13.30;99.90
20829;DHT22;10575;50.124;8.582;2023-01-01T17:06:17;13.30;99.90
20829;DHT22;10575;50.124;8.582;2023-01-01T17:08:42;13.30;99.90
20829;DHT22;10575;50.124;8.582;2023-01-01T17:11:12;13.30;99.90
20829;DHT22;10575;50.124;8.582;2023-01-01T17:13:40;13.20;99.90
20829;DHT22;10575;50.124;8.582;2023-01-01T17:16:06;13.20;99.90
20829;DHT22;10575;50.124;8.582;2023-01-01T17:18:32;13.20;99.90
20829;DHT22;10575;50.124;8.582;2023-01-01T17:21:05;13.20;99.90
20829;DHT22;10575;50.124;8.582;2023-01-01T17:23:38;13.20;99.90
20829;DHT22;10575;50.124;8.582;2023-01-01T17:26:15;13.20;99.90
20829;DHT22;10575;50.124;8.582;2023-01-01T17:28:42;13.20;99.90
20829;DHT22;10575;50.124;8.582;2023-01-01T17:31:10;13.20;99.90
20829;DHT22;10575;50.124;8.582;2023-01-01T17:33:36;13.20;99.90
20829;DHT22;10575;50.124;8.582;2023-01-01T17:36:02;13.20;99.90